Time;durP1;ratioP1;P1;durP2;ratioP2;P2;SDS_P1;SDS_P2;PMS_P1;PMS_P2;Temp;Humidity;BMP_temperature;BMP_pressure;BME280_temperature;BME280_humidity;BME280_pressure;Samples;Min_cycle;Max_cycle;Signal;HPM_P1;HPM_P2
2024/04/18 00:01:35;;;;;;;1999.90;999.90;;;7.90;99.90;;;;;;5523525;26;19995;-67
2024/04/18 00:04:01;;;;;;;1999.90;999.90;;;7.90;99.90;;;;;;5490735;26;20405;-68
2024/04/18 00:06:26;;;;;;;1999.90;999.90;;;7.90;99.90;;;;;;5523168;26;20370;-74
2024/04/18 00:08:52;;;;;;;1999.90;999.90;;;7.90;99.90;;;;;;5523737;26;20758;-67
2024/04/18 00:11:18;;;;;;;1999.90;999.90;;;7.90;99.90;;;;;;5523726;26;19997;-67
2024/04/18 00:13:43;;;;;;;1999.90;999.90;;;7.80;99.90;;;;;;5523515;26;19997;-68
2024/04/18 00:16:09;;;;;;;1999.90;999.90;;;7.80;99.90;;;;;;5523170;26;19993;-68
2024/04/18 00:18:34;;;;;;;1999.90;999.90;;;7.80;99.90;;;;;;5490829;26;19998;-67
2024/04/18 00:21:00;;;;;;;1999.90;999.90;;;7.80;99.90;;;;;;5523365;26;19993;-74
2024/04/18 00:23:26;;;;;;;1999.90;999.90;;;7.80;99.90;;;;;;5523127;26;20058;-69
2024/04/18 00:25:51;;;;;;;1999.90;999.90;;;7.80;99.90;;;;;;5523622;26;19993;-67
2024/04/18 00:28:17;;;;;;;1999.90;999.90;;;7.70;99.90;;;;;;5522807;26;20301;-67
2024/04/18 00:30:42;;;;;;;1999.90;999.90;;;7.70;99.90;;;;;;5523108;26;20005;-73
2024/04/18 00:33:08;;;;;;;1999.90;999.90;;;7.70;99.90;;;;;;5522538;26;19997;-68
2024/04/18 00:35:34;;;;;;;1999.90;999.90;;;7.70;99.90;;;;;;5522959;25;20317;-67
2024/04/18 00:38:01;;;;;;;1999.90;999.90;;;7.70;99.90;;;;;;5522762;26;20005;-68
2024/04/18 00:40:26;;;;;;;1999.90;999.90;;;7.70;99.90;;;;;;5522548;26;19993;-68
2024/04/18 00:42:52;;;;;;;1999.90;999.90;;;7.60;99.90;;;;;;5523604;25;20001;-68
2024/04/18 00:45:19;;;;;;;1999.90;999.90;;;7.60;99.90;;;;;;5523270;26;20324;-74
2024/04/18 00:47:48;;;;;;;1999.90;999.90;;;7.60;99.90;;;;;;5523325;26;20021;-67
2024/04/18 00:50:16;;;;;;;1999.90;999.90;;;7.50;99.90;;;;;;5525236;26;20001;-68
2024/04/18 00:52:42;;;;;;;1999.90;999.90;;;7.50;99.90;;;;;;5526644;26;20433;-68
2024/04/18 00:55:09;;;;;;;1999.90;999.90;;;7.40;99.90;;;;;;5526602;26;20008;-68
2024/04/18 00:57:37;;;;;;;1999.90;999.90;;;7.40;99.90;;;;;;5524733;26;20086;-74
2024/04/18 01:00:04;;;;;;;1999.90;999.90;;;7.40;99.90;;;;;;5526122;26;19995;-68
2024/04/18 01:02:30;;;;;;;1999.90;999.90;;;7.30;99.90;;;;;;5525936;26;19998;-67
2024/04/18 01:04:57;;;;;;;1999.90;999.90;;;7.30;99.90;;;;;;5526494;26;19997;-74
2024/04/18 01:07:24;;;;;;;1999.90;999.90;;;7.20;99.90;;;;;;5526210;26;19993;-68
2024/04/18 01:09:50;;;;;;;1999.90;999.90;;;7.20;99.90;;;;;;5526192;26;20001;-67
2024/04/18 01:12:15;;;;;;;1999.90;999.90;;;7.10;99.90;;;;;;5525882;26;20030;-68
2024/04/18 01:14:41;;;;;;;1999.90;999.90;;;7.00;99.90;;;;;;5526092;26;20042;-68
2024/04/18 01:17:07;;;;;;;1999.90;999.90;;;7.00;99.90;;;;;;5526184;26;19997;-74
2024/04/18 01:19:34;;;;;;;1999.90;999.90;;;7.00;99.90;;;;;;5526520;26;20286;-67
2024/04/18 01:22:01;;;;;;;1999.90;999.90;;;6.90;99.90;;;;;;5525766;26;20006;-74
2024/04/18 01:24:30;;;;;;;1999.90;999.90;;;6.90;99.90;;;;;;5525846;26;20001;-74
2024/04/18 01:26:56;;;;;;;1999.90;999.90;;;6.80;99.90;;;;;;5493936;26;19997;-68
2024/04/18 01:29:21;;;;;;;1999.90;999.90;;;6.90;99.90;;;;;;5536521;25;20015;-68
2024/04/18 01:31:47;;;;;;;1999.90;999.90;;;6.80;99.90;;;;;;5563414;25;20007;-68
2024/04/18 01:34:13;;;;;;;1999.90;999.90;;;6.80;99.90;;;;;;5563032;25;20428;-68
2024/04/18 01:36:38;;;;;;;1999.90;999.90;;;6.80;99.90;;;;;;5563283;25;20000;-68
2024/04/18 01:39:04;;;;;;;1999.90;999.90;;;6.80;99.90;;;;;;5563000;25;20026;-68
2024/04/18 01:41:30;;;;;;;1999.90;999.90;;;6.80;99.90;;;;;;5562009;25;19989;-68
2024/04/18 01:43:56;;;;;;;1999.90;999.90;;;6.80;99.90;;;;;;5525865;26;20347;-68
2024/04/18 01:46:21;;;;;;;1999.90;999.90;;;6.70;99.90;;;;;;5525823;26;19989;-74
2024/04/18 01:48:48;;;;;;;1999.90;999.90;;;6.70;99.90;;;;;;5525642;26;20069;-74
2024/04/18 01:51:14;;;;;;;1999.90;999.90;;;6.70;99.90;;;;;;5525776;26;19998;-68
2024/04/18 01:53:39;;;;;;;1999.90;999.90;;;6.70;99.90;;;;;;5525175;26;20501;-68
2024/04/18 01:56:05;;;;;;;1999.90;999.90;;;6.60;99.90;;;;;;5525898;26;20074;-68
2024/04/18 01:58:31;;;;;;;1999.90;999.90;;;6.60;99.90;;;;;;5525186;26;19998;-68
2024/04/18 02:00:57;;;;;;;1999.90;999.90;;;6.60;99.90;;;;;;5524627;26;20069;-75
2024/04/18 02:03:22;;;;;;;1999.90;999.90;;;6.50;99.90;;;;;;5525385;26;19997;-74
2024/04/18 02:05:48;;;;;;;1999.90;999.90;;;6.50;99.90;;;;;;5525768;26;20025;-68
2024/04/18 02:08:13;;;;;;;1999.90;999.90;;;6.50;99.90;;;;;;5525045;26;20008;-68
2024/04/18 02:10:42;;;;;;;1999.90;999.90;;;6.40;99.90;;;;;;5525546;26;20004;-68
2024/04/18 02:13:08;;;;;;;1999.90;999.90;;;6.40;99.90;;;;;;5525399;26;19993;-68
2024/04/18 02:15:33;;;;;;;1999.90;999.90;;;6.40;99.90;;;;;;5525433;26;20005;-68
2024/04/18 02:17:59;;;;;;;1999.90;999.90;;;6.40;99.90;;;;;;5525521;26;20029;-75
2024/04/18 02:20:24;;;;;;;1999.90;999.90;;;6.40;99.90;;;;;;5525156;26;20065;-75
2024/04/18 02:22:50;;;;;;;1999.90;999.90;;;6.40;99.90;;;;;;5524915;26;20016;-68
2024/04/18 02:25:16;;;;;;;1999.90;999.90;;;6.40;99.90;;;;;;5525301;26;20064;-68
2024/04/18 02:27:42;;;;;;;1999.90;999.90;;;6.40;99.90;;;;;;5525238;26;20071;-74
2024/04/18 02:30:12;;;;;;;1999.90;999.90;;;6.50;99.90;;;;;;5525331;26;20012;-74
2024/04/18 02:32:38;;;;;;;1999.90;999.90;;;6.50;99.90;;;;;;5525043;25;20032;-68
2024/04/18 02:35:04;;;;;;;1999.90;999.90;;;6.60;99.90;;;;;;5525057;25;19998;-68
2024/04/18 02:37:30;;;;;;;1999.90;999.90;;;6.60;99.90;;;;;;5524931;25;20037;-75
2024/04/18 02:39:56;;;;;;;1999.90;999.90;;;6.60;99.90;;;;;;5524979;26;20365;-75
2024/04/18 02:42:24;;;;;;;1999.90;999.90;;;6.70;99.90;;;;;;5525033;25;20412;-74
2024/04/18 02:44:49;;;;;;;1999.90;999.90;;;6.70;99.90;;;;;;5523912;26;20065;-68
2024/04/18 02:47:15;;;;;;;1999.90;999.90;;;6.70;99.90;;;;;;5525042;26;19993;-74
2024/04/18 02:49:40;;;;;;;1999.90;999.90;;;6.80;99.90;;;;;;5525121;26;20004;-68
2024/04/18 02:52:06;;;;;;;1999.90;999.90;;;6.80;99.90;;;;;;5524633;26;20393;-68
2024/04/18 02:54:32;;;;;;;1999.90;999.90;;;6.90;99.90;;;;;;5492019;26;20066;-68
2024/04/18 02:56:57;;;;;;;1999.90;999.90;;;7.00;99.90;;;;;;5524530;26;20080;-68
2024/04/18 02:59:23;;;;;;;1999.90;999.90;;;7.10;99.90;;;;;;5524437;26;20065;-68
2024/04/18 03:01:52;;;;;;;1999.90;999.90;;;7.10;99.90;;;;;;5524038;26;20292;-68
2024/04/18 03:04:17;;;;;;;1999.90;999.90;;;7.20;99.90;;;;;;5523599;26;20069;-68
2024/04/18 03:06:47;;;;;;;1999.90;999.90;;;7.20;99.90;;;;;;5523721;26;20320;-74
2024/04/18 03:09:14;;;;;;;1999.90;999.90;;;7.20;99.90;;;;;;5524846;26;20001;-74
2024/04/18 03:11:39;;;;;;;1999.90;999.90;;;7.20;99.90;;;;;;5524559;26;20297;-68
2024/04/18 03:14:05;;;;;;;1999.90;999.90;;;7.30;99.90;;;;;;5523587;26;19993;-68
2024/04/18 03:16:32;;;;;;;1999.90;999.90;;;7.30;99.90;;;;;;5524433;26;20008;-68
2024/04/18 03:18:59;;;;;;;1999.90;999.90;;;7.40;99.90;;;;;;5524253;26;20482;-75
2024/04/18 03:21:25;;;;;;;1999.90;999.90;;;7.50;99.90;;;;;;5524557;26;20049;-74
2024/04/18 03:23:51;;;;;;;1999.90;999.90;;;7.60;99.90;;;;;;5485468;26;20406;-68
2024/04/18 03:26:16;;;;;;;1999.90;999.90;;;7.70;99.90;;;;;;5487196;26;20006;-68
2024/04/18 03:28:42;;;;;;;1999.90;999.90;;;7.70;99.90;;;;;;5487545;26;19990;-69
2024/04/18 03:31:08;;;;;;;1999.90;999.90;;;7.80;99.90;;;;;;5524297;26;20005;-68
2024/04/18 03:33:33;;;;;;;1999.90;999.90;;;7.90;99.90;;;;;;5524334;25;19993;-68
2024/04/18 03:36:08;;;;;;;1999.90;999.90;;;8.00;99.90;;;;;;5524086;25;20070;-69
2024/04/18 03:38:34;;;;;;;1999.90;999.90;;;8.10;99.90;;;;;;5523437;26;20004;-68
2024/04/18 03:40:59;;;;;;;1999.90;999.90;;;8.20;99.90;;;;;;5523824;26;19993;-68
2024/04/18 03:43:30;;;;;;;1999.90;999.90;;;8.30;99.90;;;;;;5523391;25;20012;-68
2024/04/18 03:46:00;;;;;;;1999.90;999.90;;;8.40;99.90;;;;;;5491671;26;20005;-68
2024/04/18 03:48:26;;;;;;;1999.90;999.90;;;8.50;99.90;;;;;;5523907;26;19994;-74
2024/04/18 03:50:52;;;;;;;1999.90;999.90;;;8.60;99.90;;;;;;5523794;26;20464;-68
2024/04/18 03:53:18;;;;;;;1999.90;999.90;;;8.70;99.90;;;;;;5524104;26;20008;-75
2024/04/18 03:55:43;;;;;;;1999.90;999.90;;;8.70;99.90;;;;;;5522844;26;19989;-68
2024/04/18 03:58:09;;;;;;;1999.90;999.90;;;8.80;99.90;;;;;;5523176;26;20277;-68
2024/04/18 04:00:34;;;;;;;1999.90;999.90;;;8.80;99.90;;;;;;5490958;26;20001;-75
2024/04/18 04:03:00;;;;;;;1999.90;999.90;;;8.90;99.90;;;;;;5523418;26;19993;-68
2024/04/18 04:05:26;;;;;;;1999.90;999.90;;;8.90;99.90;;;;;;5524436;26;20008;-68
2024/04/18 04:07:51;;;;;;;1999.90;999.90;;;9.00;99.90;;;;;;5523345;26;20471;-68
2024/04/18 04:10:17;;;;;;;1999.90;999.90;;;9.00;99.90;;;;;;5523461;26;20004;-68
2024/04/18 04:12:42;;;;;;;1999.90;999.90;;;9.00;99.90;;;;;;5523452;26;20078;-74
2024/04/18 04:15:08;;;;;;;1999.90;999.90;;;9.00;99.90;;;;;;5523583;26;20133;-68
2024/04/18 04:17:36;;;;;;;1999.90;999.90;;;9.10;99.90;;;;;;5523633;26;20030;-68
2024/04/18 04:20:02;;;;;;;1999.90;999.90;;;9.10;99.90;;;;;;5523188;26;20066;-68
2024/04/18 04:22:28;;;;;;;1999.90;999.90;;;9.10;99.90;;;;;;5523638;26;20005;-75
2024/04/18 04:24:53;;;;;;;1999.90;999.90;;;9.10;99.90;;;;;;5524799;26;19993;-68
2024/04/18 04:27:19;;;;;;;1999.90;999.90;;;9.10;99.90;;;;;;5526944;26;20004;-75
2024/04/18 04:29:44;;;;;;;1999.90;999.90;;;9.10;99.90;;;;;;5526756;26;20365;-68
2024/04/18 04:32:20;;;;;;;1999.90;999.90;;;9.10;99.90;;;;;;5526922;26;19997;-75
2024/04/18 04:34:45;;;;;;;1999.90;999.90;;;9.10;99.90;;;;;;5526737;25;20005;-68
2024/04/18 04:37:11;;;;;;;1999.90;999.90;;;9.20;99.90;;;;;;5526028;26;20065;-74
2024/04/18 04:39:36;;;;;;;1999.90;999.90;;;9.20;99.90;;;;;;5526507;26;20076;-75
2024/04/18 04:42:02;;;;;;;1999.90;999.90;;;9.20;99.90;;;;;;5526858;25;20294;-68
2024/04/18 04:44:28;;;;;;;1999.90;999.90;;;9.20;99.90;;;;;;5494142;26;20413;-75
2024/04/18 04:46:53;;;;;;;1999.90;999.90;;;9.20;99.90;;;;;;5526560;26;20090;-68
2024/04/18 04:49:19;;;;;;;1999.90;999.90;;;9.20;99.90;;;;;;5494126;26;20073;-68
2024/04/18 04:51:45;;;;;;;1999.90;999.90;;;9.20;99.90;;;;;;5526715;26;20065;-68
2024/04/18 04:54:10;;;;;;;1999.90;999.90;;;9.10;99.90;;;;;;5493028;26;20325;-68
2024/04/18 04:56:36;;;;;;;1999.90;999.90;;;9.20;99.90;;;;;;5525683;26;20004;-68
2024/04/18 04:59:02;;;;;;;1999.90;999.90;;;9.10;99.90;;;;;;5526589;26;19993;-68
2024/04/18 05:01:27;;;;;;;1999.90;999.90;;;9.10;99.90;;;;;;5526851;26;19994;-75
2024/04/18 05:03:53;;;;;;;1999.90;999.90;;;9.10;99.90;;;;;;5526222;26;20008;-74
2024/04/18 05:06:18;;;;;;;1999.90;999.90;;;9.10;99.90;;;;;;5526799;26;20037;-68
2024/04/18 05:08:45;;;;;;;1999.90;999.90;;;9.10;99.90;;;;;;5526722;26;20442;-68
2024/04/18 05:11:11;;;;;;;1999.90;999.90;;;9.00;99.90;;;;;;5526182;26;19993;-68
2024/04/18 05:13:36;;;;;;;1999.90;999.90;;;9.00;99.90;;;;;;5526126;26;20432;-68
2024/04/18 05:16:02;;;;;;;1999.90;999.90;;;8.90;99.90;;;;;;5526295;26;20075;-75
2024/04/18 05:18:28;;;;;;;1999.90;999.90;;;8.90;99.90;;;;;;5493312;26;19994;-75
2024/04/18 05:20:53;;;;;;;1999.90;999.90;;;8.90;99.90;;;;;;5526012;26;20012;-68
2024/04/18 05:23:19;;;;;;;1999.90;999.90;;;8.80;99.90;;;;;;5493397;26;20043;-68
2024/04/18 05:25:45;;;;;;;1999.90;999.90;;;8.90;99.90;;;;;;5526191;26;20065;-68
2024/04/18 05:28:12;;;;;;;1999.90;999.90;;;8.80;99.90;;;;;;5525795;26;19989;-68
2024/04/18 05:33:25;;;;;;;1999.90;999.90;;;8.80;99.90;;;;;;5523426;26;20007;-68
2024/04/18 05:35:51;;;;;;;1999.90;999.90;;;8.70;99.90;;;;;;5521427;25;19993;-68
2024/04/18 05:38:17;;;;;;;1999.90;999.90;;;8.90;99.90;;;;;;5524280;26;20457;-68
2024/04/18 05:40:44;;;;;;;1999.90;999.90;;;8.90;99.90;;;;;;5525087;26;20008;-67
2024/04/18 05:43:10;;;;;;;1999.90;999.90;;;8.90;99.90;;;;;;5524803;25;20332;-74
2024/04/18 05:45:35;;;;;;;1999.90;999.90;;;9.00;99.90;;;;;;5525242;26;19997;-74
2024/04/18 05:48:01;;;;;;;1999.90;999.90;;;9.10;99.90;;;;;;5524533;26;19997;-68
2024/04/18 05:50:26;;;;;;;1999.90;999.90;;;9.10;99.90;;;;;;5524591;26;20070;-68
2024/04/18 05:52:53;;;;;;;1999.90;999.90;;;9.20;99.90;;;;;;5524712;26;20189;-68
2024/04/18 05:55:19;;;;;;;1999.90;999.90;;;9.20;99.90;;;;;;5523213;26;20422;-75
2024/04/18 05:57:44;;;;;;;1999.90;999.90;;;9.20;99.90;;;;;;5524551;26;20004;-68
2024/04/18 06:00:13;;;;;;;1999.90;999.90;;;9.20;99.90;;;;;;5524613;26;20009;-68
2024/04/18 06:02:39;;;;;;;1999.90;999.90;;;9.20;99.90;;;;;;5523657;25;19989;-74
2024/04/18 06:05:05;;;;;;;1999.90;999.90;;;9.20;99.90;;;;;;5520746;26;20021;-68
2024/04/18 06:07:31;;;;;;;1999.90;999.90;;;9.20;99.90;;;;;;5523441;26;19997;-68
2024/04/18 06:09:56;;;;;;;1999.90;999.90;;;9.20;99.90;;;;;;5521685;26;20008;-74
2024/04/18 06:12:22;;;;;;;1999.90;999.90;;;9.20;99.90;;;;;;5524670;26;19997;-74
2024/04/18 06:14:48;;;;;;;1999.90;999.90;;;9.20;99.90;;;;;;5523894;26;19993;-68
2024/04/18 06:17:16;;;;;;;1999.90;999.90;;;9.30;99.90;;;;;;5523784;26;20029;-67
2024/04/18 06:19:42;;;;;;;1999.90;999.90;;;9.30;99.90;;;;;;5524403;26;20405;-67
2024/04/18 06:22:07;;;;;;;1999.90;999.90;;;9.40;99.90;;;;;;5523750;26;20069;-75
2024/04/18 06:24:33;;;;;;;1999.90;999.90;;;9.30;99.90;;;;;;5523205;26;20012;-69
2024/04/18 06:26:59;;;;;;;1999.90;999.90;;;9.30;99.90;;;;;;5520839;26;20001;-74
2024/04/18 06:29:26;;;;;;;1999.90;999.90;;;9.30;99.90;;;;;;5525632;25;20079;-74
2024/04/18 06:31:52;;;;;;;1999.90;999.90;;;9.40;99.90;;;;;;5523831;26;20358;-68
2024/04/18 06:34:17;;;;;;;1999.90;999.90;;;9.50;99.90;;;;;;5527661;25;20001;-75
2024/04/18 06:36:43;;;;;;;1999.90;999.90;;;9.40;99.90;;;;;;5521838;25;19996;-74
2024/04/18 06:39:09;;;;;;;1999.90;999.90;;;9.40;99.90;;;;;;5527609;25;20020;-68
2024/04/18 06:41:36;;;;;;;1999.90;999.90;;;9.40;99.90;;;;;;5522753;26;19994;-68
2024/04/18 06:44:02;;;;;;;1999.90;999.90;;;9.50;99.90;;;;;;5521419;26;20350;-69
2024/04/18 06:46:27;;;;;;;1999.90;999.90;;;9.50;99.90;;;;;;5522502;26;20002;-68
2024/04/18 06:48:53;;;;;;;1999.90;999.90;;;9.60;99.90;;;;;;5489604;26;20407;-68
2024/04/18 06:51:19;;;;;;;1999.90;999.90;;;9.70;99.90;;;;;;5523186;26;20054;-68
2024/04/18 06:53:44;;;;;;;1999.90;999.90;;;9.80;99.90;;;;;;5521089;26;20433;-74
2024/04/18 06:56:10;;;;;;;1999.90;999.90;;;10.00;99.90;;;;;;5517756;26;20013;-67
2024/04/18 06:58:36;;;;;;;1999.90;999.90;;;10.30;99.90;;;;;;5522449;25;20065;-68
2024/04/18 07:01:01;;;;;;;1999.90;999.90;;;10.60;99.90;;;;;;5522502;26;19997;-75
2024/04/18 07:03:27;;;;;;;1999.90;999.90;;;10.80;99.90;;;;;;5514930;25;20005;-76
2024/04/18 07:05:53;;;;;;;1999.90;999.90;;;10.80;99.90;;;;;;5522477;26;20001;-68
2024/04/18 07:08:19;;;;;;;1999.90;999.90;;;10.80;99.90;;;;;;5521882;26;19997;-76
2024/04/18 07:10:44;;;;;;;1999.90;999.90;;;10.90;99.90;;;;;;5490295;26;20005;-69
2024/04/18 07:13:10;;;;;;;1999.90;999.90;;;11.20;99.90;;;;;;5490365;26;20002;-79
2024/04/18 07:15:36;;;;;;;1999.90;999.90;;;11.30;99.90;;;;;;5511147;26;20004;-79
2024/04/18 07:18:01;;;;;;;1999.90;999.90;;;11.40;99.90;;;;;;5522822;26;20001;-78
2024/04/18 07:20:27;;;;;;;1999.90;999.90;;;11.60;99.90;;;;;;5522381;26;20076;-80
2024/04/18 07:22:53;;;;;;;1999.90;999.90;;;11.70;99.90;;;;;;5489899;26;20416;-69
2024/04/18 07:25:19;;;;;;;1999.90;999.90;;;11.80;99.90;;;;;;5522945;26;20414;-69
2024/04/18 07:27:44;;;;;;;1999.90;999.90;;;12.00;99.90;;;;;;5522380;26;20001;-70
2024/04/18 07:30:10;;;;;;;1999.90;999.90;;;12.00;99.90;;;;;;5545556;25;19997;-70
2024/04/18 07:32:36;;;;;;;1999.90;999.90;;;12.00;99.90;;;;;;5517995;25;19998;-69
2024/04/18 07:35:02;;;;;;;1999.90;999.90;;;11.80;99.90;;;;;;5511313;26;20598;-70
2024/04/18 07:37:27;;;;;;;1999.90;999.90;;;11.90;99.90;;;;;;5515954;25;20017;-69
2024/04/18 07:39:54;;;;;;;1999.90;999.90;;;12.20;99.90;;;;;;5520713;26;20077;-69
2024/04/18 07:42:20;;;;;;;1999.90;999.90;;;11.80;99.90;;;;;;5507871;26;19993;-79
2024/04/18 07:44:45;;;;;;;1999.90;999.90;;;11.50;99.90;;;;;;5527745;25;20077;-79
2024/04/18 07:47:11;;;;;;;1999.90;999.90;;;11.40;99.90;;;;;;5522864;25;19993;-69
2024/04/18 07:49:37;;;;;;;1999.90;999.90;;;11.70;99.90;;;;;;5521710;25;20072;-70
2024/04/18 07:52:03;;;;;;;1999.90;999.90;;;12.10;99.90;;;;;;5522600;26;20039;-70
2024/04/18 07:54:29;;;;;;;1999.90;999.90;;;12.40;99.90;;;;;;5522686;26;20001;-80
2024/04/18 07:56:55;;;;;;;1999.90;999.90;;;12.60;99.90;;;;;;5493112;25;20042;-69
2024/04/18 07:59:20;;;;;;;1999.90;999.90;;;12.90;99.90;;;;;;5532703;25;20302;-69
2024/04/18 08:01:46;;;;;;;1999.90;999.90;;;13.30;99.90;;;;;;5522362;26;20004;-70
2024/04/18 08:04:12;;;;;;;1999.90;999.90;;;14.00;99.90;;;;;;5521495;26;20001;-70
2024/04/18 08:06:37;;;;;;;1999.90;999.90;;;14.90;99.90;;;;;;5522456;26;20406;-78
2024/04/18 08:09:04;;;;;;;1999.90;999.90;;;14.90;99.90;;;;;;5522048;26;19997;-72
2024/04/18 08:11:32;;;;;;;1999.90;999.90;;;17.50;99.90;;;;;;5522653;26;20065;-70
2024/04/18 08:13:58;;;;;;;1999.90;999.90;;;18.10;99.90;;;;;;5522495;26;20005;-71
2024/04/18 08:16:24;;;;;;;1999.90;999.90;;;18.60;99.90;;;;;;5522394;26;20359;-70
2024/04/18 08:18:49;;;;;;;1999.90;999.90;;;20.20;99.90;;;;;;5522063;26;19993;-80
2024/04/18 08:21:15;;;;;;;1999.90;999.90;;;21.90;99.90;;;;;;5522046;26;19994;-81
2024/04/18 08:23:40;;;;;;;1999.90;999.90;;;20.10;99.90;;;;;;5521522;26;20013;-71
2024/04/18 08:26:06;;;;;;;1999.90;999.90;;;20.60;99.90;;;;;;5521772;26;20035;-70
2024/04/18 08:28:32;;;;;;;1999.90;999.90;;;19.40;99.90;;;;;;5521410;26;20012;-70
2024/04/18 08:30:57;;;;;;;1999.90;999.90;;;19.90;99.90;;;;;;5544680;25;20001;-70
2024/04/18 08:33:23;;;;;;;1999.90;999.90;;;21.70;99.90;;;;;;5487461;26;20012;-71
2024/04/18 08:35:48;;;;;;;1999.90;999.90;;;20.00;99.90;;;;;;5521043;26;20441;-70
2024/04/18 08:38:14;;;;;;;1999.90;999.90;;;17.70;99.90;;;;;;5462560;26;20067;-70
2024/04/18 08:40:44;;;;;;;1999.90;999.90;;;15.70;99.90;;;;;;5448478;26;20438;-70
2024/04/18 08:43:11;;;;;;;1999.90;999.90;;;18.50;99.90;;;;;;5448669;26;20014;-71
2024/04/18 08:45:38;;;;;;;1999.90;999.90;;;19.50;99.90;;;;;;5448888;26;20422;-80
2024/04/18 08:48:05;;;;;;;1999.90;999.90;;;21.20;99.90;;;;;;5448455;26;19995;-80
2024/04/18 08:50:32;;;;;;;1999.90;999.90;;;24.10;99.90;;;;;;5411013;26;19996;-80
2024/04/18 08:52:58;;;;;;;1999.90;999.90;;;22.30;99.90;;;;;;5440865;26;20031;-82
2024/04/18 08:55:23;;;;;;;1999.90;999.90;;;23.10;99.90;;;;;;5446925;26;20071;-79
2024/04/18 08:58:13;;;;;;;1999.90;999.90;;;25.70;99.90;;;;;;5448293;26;20140;-79
2024/04/18 09:00:43;;;;;;;1999.90;999.90;;;26.10;99.90;;;;;;5448922;26;19995;-78
2024/04/18 09:03:10;;;;;;;1999.90;999.90;;;26.30;99.90;;;;;;5447888;26;20363;-70
2024/04/18 09:05:37;;;;;;;1999.90;999.90;;;27.40;99.90;;;;;;5440435;26;20093;-69
2024/04/18 09:08:03;;;;;;;1999.90;999.90;;;23.20;99.90;;;;;;5429673;26;20010;-71
2024/04/18 09:10:29;;;;;;;1999.90;999.90;;;20.00;99.90;;;;;;5450281;26;20526;-82
2024/04/18 09:12:55;;;;;;;1999.90;999.90;;;19.60;99.90;;;;;;5449849;26;20001;-82
2024/04/18 09:15:26;;;;;;;1999.90;999.90;;;19.60;99.90;;;;;;5452828;26;20003;-71
2024/04/18 09:18:03;;;;;;;1999.90;999.90;;;20.30;99.90;;;;;;5451606;26;20450;-72
2024/04/18 09:20:30;;;;;;;1999.90;999.90;;;23.20;99.90;;;;;;5452279;26;20339;-70
2024/04/18 09:22:56;;;;;;;1999.90;999.90;;;24.10;99.90;;;;;;5450171;26;20045;-70
2024/04/18 09:25:22;;;;;;;1999.90;999.90;;;24.70;99.90;;;;;;5451291;26;20027;-81
2024/04/18 09:27:47;;;;;;;1999.90;999.90;;;25.20;99.90;;;;;;5451609;26;20306;-70
2024/04/18 09:30:14;;;;;;;1999.90;999.90;;;25.40;99.90;;;;;;5451440;26;20017;-69
2024/04/18 09:32:43;;;;;;;1999.90;999.90;;;22.50;99.90;;;;;;5451749;26;20010;-69
2024/04/18 09:35:10;;;;;;;1999.90;999.90;;;20.60;99.90;;;;;;5452053;26;20013;-69
2024/04/18 09:37:39;;;;;;;1999.90;999.90;;;19.60;99.90;;;;;;5470525;26;19997;-82
2024/04/18 09:40:11;;;;;;;1999.90;999.90;;;20.40;99.90;;;;;;5524474;26;19993;-71
2024/04/18 09:42:45;;;;;;;1999.90;999.90;;;22.30;99.90;;;;;;5524298;26;20041;-71
2024/04/18 09:45:14;;;;;;;1999.90;999.90;;;21.10;99.90;;;;;;5524426;26;20012;-70
2024/04/18 09:47:40;;;;;;;1999.90;999.90;;;18.20;99.90;;;;;;5525009;26;19993;-70
2024/04/18 09:50:06;;;;;;;1999.90;999.90;;;17.60;99.90;;;;;;5523516;26;20448;-70
2024/04/18 09:52:33;;;;;;;1999.90;999.90;;;16.80;99.90;;;;;;5524388;26;19997;-70
2024/04/18 09:55:00;;;;;;;1999.90;999.90;;;16.10;99.90;;;;;;5524155;26;20037;-70
2024/04/18 09:57:27;;;;;;;1999.90;999.90;;;15.10;99.90;;;;;;5522324;26;20216;-70
2024/04/18 09:59:54;;;;;;;1999.90;999.90;;;14.80;99.90;;;;;;5524319;26;20440;-70
2024/04/18 10:02:21;;;;;;;1999.90;999.90;;;16.70;99.90;;;;;;5491128;26;19989;-81
2024/04/18 10:04:47;;;;;;;1999.90;999.90;;;17.60;99.90;;;;;;5518222;26;19998;-81
2024/04/18 10:07:15;;;;;;;1999.90;999.90;;;17.80;99.90;;;;;;5524373;26;20003;-70
2024/04/18 10:09:43;;;;;;;1999.90;999.90;;;18.20;99.90;;;;;;5524109;26;20001;-70
2024/04/18 10:12:09;;;;;;;1999.90;999.90;;;17.90;99.90;;;;;;5523497;26;20008;-70
2024/04/18 10:14:38;;;;;;;1999.90;999.90;;;17.10;99.90;;;;;;5521763;26;20321;-70
2024/04/18 10:17:04;;;;;;;1999.90;999.90;;;16.50;99.90;;;;;;5523754;26;20004;-81
2024/04/18 10:19:31;;;;;;;1999.90;999.90;;;15.70;99.90;;;;;;5521379;25;20420;-70
2024/04/18 10:21:58;;;;;;;1999.90;999.90;;;16.00;99.90;;;;;;5520362;25;20037;-70
2024/04/18 10:24:34;;;;;;;1999.90;999.90;;;17.40;99.90;;;;;;5519496;25;20456;-70
2024/04/18 10:27:14;;;;;;;1999.90;999.90;;;18.10;99.90;;;;;;5541297;25;19996;-71
2024/04/18 10:29:40;;;;;;;1999.90;999.90;;;18.30;99.90;;;;;;5521150;25;20128;-81
2024/04/18 10:32:07;;;;;;;1999.90;999.90;;;19.00;99.90;;;;;;5520320;25;20001;-70
2024/04/18 10:34:33;;;;;;;1999.90;999.90;;;18.80;99.90;;;;;;5516897;25;20005;-72
2024/04/18 10:37:08;;;;;;;1999.90;999.90;;;18.60;99.90;;;;;;5516466;25;20017;-70
2024/04/18 10:39:39;;;;;;;1999.90;999.90;;;18.70;99.90;;;;;;5524927;25;19997;-70
2024/04/18 10:42:10;;;;;;;1999.90;999.90;;;18.40;99.90;;;;;;5527601;25;20017;-79
2024/04/18 10:44:39;;;;;;;1999.90;999.90;;;18.50;99.90;;;;;;5546502;25;20444;-79
2024/04/18 10:47:06;;;;;;;1999.90;999.90;;;18.20;99.90;;;;;;5522301;25;20005;-70
2024/04/18 10:49:38;;;;;;;1999.90;999.90;;;18.30;99.90;;;;;;5486663;26;20013;-70
2024/04/18 10:52:08;;;;;;;1999.90;999.90;;;18.10;99.90;;;;;;5519578;25;20015;-70
2024/04/18 10:54:34;;;;;;;1999.90;999.90;;;18.80;99.90;;;;;;5520465;25;20012;-79
2024/04/18 10:57:00;;;;;;;1999.90;999.90;;;18.90;99.90;;;;;;5526595;25;21426;-79
2024/04/18 10:59:25;;;;;;;1999.90;999.90;;;18.20;99.90;;;;;;5537448;25;20235;-69
2024/04/18 11:02:03;;;;;;;1999.90;999.90;;;17.70;99.90;;;;;;5521117;25;20082;-78
2024/04/18 11:04:28;;;;;;;1999.90;999.90;;;17.70;99.90;;;;;;5502085;26;19997;-69
2024/04/18 11:06:54;;;;;;;1999.90;999.90;;;18.10;99.90;;;;;;5522036;25;20007;-78
2024/04/18 11:09:20;;;;;;;1999.90;999.90;;;18.70;99.90;;;;;;5529962;25;20379;-69
2024/04/18 11:11:45;;;;;;;1999.90;999.90;;;19.20;99.90;;;;;;5521154;26;19998;-70
2024/04/18 11:14:13;;;;;;;1999.90;999.90;;;19.10;99.90;;;;;;5523250;26;20512;-70
2024/04/18 11:16:38;;;;;;;1999.90;999.90;;;19.00;99.90;;;;;;5522605;26;20028;-70
2024/04/18 11:19:04;;;;;;;1999.90;999.90;;;20.10;99.90;;;;;;5483990;26;20448;-70
2024/04/18 11:21:30;;;;;;;1999.90;999.90;;;20.80;99.90;;;;;;5486448;26;20406;-80
2024/04/18 11:23:56;;;;;;;1999.90;999.90;;;19.70;99.90;;;;;;5490219;26;19998;-70
2024/04/18 11:26:22;;;;;;;1999.90;999.90;;;19.60;99.90;;;;;;5520402;26;20073;-69
2024/04/18 11:28:50;;;;;;;1999.90;999.90;;;19.70;99.90;;;;;;5490006;25;20011;-69
2024/04/18 11:31:15;;;;;;;1999.90;999.90;;;18.50;99.90;;;;;;5527455;25;20001;-69
2024/04/18 11:33:42;;;;;;;1999.90;999.90;;;18.30;99.90;;;;;;5520587;26;20058;-78
2024/04/18 11:36:08;;;;;;;1999.90;999.90;;;18.70;99.90;;;;;;5519100;26;20175;-79
2024/04/18 11:38:34;;;;;;;1999.90;999.90;;;19.00;99.90;;;;;;5529914;25;20012;-69
2024/04/18 11:41:00;;;;;;;1999.90;999.90;;;18.80;99.90;;;;;;5521700;26;20021;-69
2024/04/18 11:43:26;;;;;;;1999.90;999.90;;;18.20;99.90;;;;;;5488194;26;19997;-80
2024/04/18 11:45:51;;;;;;;1999.90;999.90;;;17.00;99.90;;;;;;5521453;26;20415;-79
2024/04/18 11:48:17;;;;;;;1999.90;999.90;;;16.70;99.90;;;;;;5522648;26;20424;-79
2024/04/18 11:50:43;;;;;;;1999.90;999.90;;;17.20;99.90;;;;;;5522385;26;20002;-69
2024/04/18 11:53:09;;;;;;;1999.90;999.90;;;17.40;99.90;;;;;;5522049;26;20504;-79
2024/04/18 11:55:38;;;;;;;1999.90;999.90;;;17.20;99.90;;;;;;5521021;26;20004;-69
2024/04/18 11:58:04;;;;;;;1999.90;999.90;;;17.80;99.90;;;;;;5522297;26;19993;-69
2024/04/18 12:00:35;;;;;;;1999.90;999.90;;;17.30;99.90;;;;;;5522092;26;19997;-79
2024/04/18 12:03:01;;;;;;;1999.90;999.90;;;17.30;99.90;;;;;;5516332;26;19997;-69